No particular awareness of the weather is required.    There are no Weather-warnings


Meteo18 Weather Cam more information Meteo18 Weather Cam


Thunder radar more information blitzortung!


Rain radar more information rain snow radar


Visit our other weather sites:

Template documentation
and downloads

And another site



Weather Underground History page Text

Daily Summary for April 22, 2017 Units:  Both    English   Metric
« Previous Day
Next Day »
Daily Weekly Monthly Yearly Custom
  High: Low: Average:
Temperature: 64 °F /  17.8 °C 39.7 °F /  4.3 °C 52.9 °F /  11.6 °C
Dew Point: 43.7 °F /  6.5 °C 30 °F /  -1.1 °C 37.6 °F /  3.1 °C
Humidity: 79 % 44 % 57 %
Wind Speed: 13 mph /  20.9 km/h - 3.1 mph /  5 km/h
Wind Gust: 18 mph /  29.0 km/h - -
Wind:- - SSE
Pressure: 30.4 in /  1029.3 hPa 30.3 in /  1024.3 hPa -
Precipitation: 0 in /  0.0 mm    
Historical Graphs
 
 
Tabular Data for April 22, 2017
Time Temperature Dew Point Pressure Wind Wind Speed Wind Gust Humidity Rainfall Rate (Hourly)
00:02 48.9 °F /  9.4 °C 32 °F /  0.0 °C 30.4 in /  1029.3 hPa NNW 1 mph /  1.6 km/h 5 mph /  8.0 km/h 52 % 0 in /  0.0 mm
00:07 48.7 °F /  9.3 °C 31.8 °F /  -0.1 °C 30.4 in /  1029.0 hPa NNW 2 mph /  3.2 km/h 5 mph /  8.0 km/h 52 % 0 in /  0.0 mm
00:12 48.7 °F /  9.3 °C 31.8 °F /  -0.1 °C 30.4 in /  1029.3 hPa North 2 mph /  3.2 km/h 5 mph /  8.0 km/h 52 % 0 in /  0.0 mm
00:17 48.7 °F /  9.3 °C 31.8 °F /  -0.1 °C 30.4 in /  1029.0 hPa North 3 mph /  4.8 km/h 5 mph /  8.0 km/h 52 % 0 in /  0.0 mm
00:22 48.4 °F /  9.1 °C 32 °F /  0.0 °C 30.4 in /  1029.0 hPa North 1 mph /  1.6 km/h 5 mph /  8.0 km/h 53 % 0 in /  0.0 mm
00:27 48 °F /  8.9 °C 31.6 °F /  -0.2 °C 30.4 in /  1029.0 hPa North 1 mph /  1.6 km/h 5 mph /  8.0 km/h 53 % 0 in /  0.0 mm
00:32 47.8 °F /  8.8 °C 31.5 °F /  -0.3 °C 30.4 in /  1029.0 hPa Calm   5 mph /  8.0 km/h 53 % 0 in /  0.0 mm
00:37 47.8 °F /  8.8 °C 32 °F /  0.0 °C 30.4 in /  1029.0 hPa Calm   5 mph /  8.0 km/h 54 % 0 in /  0.0 mm
00:42 47.7 °F /  8.7 °C 31.8 °F /  -0.1 °C 30.4 in /  1029.0 hPa Calm   3 mph /  4.8 km/h 54 % 0 in /  0.0 mm
00:52 47.1 °F /  8.4 °C 31.8 °F /  -0.1 °C 30.4 in /  1029.0 hPa Calm   3 mph /  4.8 km/h 55 % 0 in /  0.0 mm
01:02 45.7 °F /  7.6 °C 31.8 °F /  -0.1 °C 30.4 in /  1029.0 hPa WNW 1 mph /  1.6 km/h 2 mph /  3.2 km/h 58 % 0 in /  0.0 mm
01:12 46 °F /  7.8 °C 31.3 °F /  -0.4 °C 30.4 in /  1028.7 hPa NNW 1 mph /  1.6 km/h 2 mph /  3.2 km/h 56 % 0 in /  0.0 mm
01:17 46 °F /  7.8 °C 31.3 °F /  -0.4 °C 30.4 in /  1028.7 hPa NNW 1 mph /  1.6 km/h 2 mph /  3.2 km/h 56 % 0 in /  0.0 mm
01:22 46 °F /  7.8 °C 31.3 °F /  -0.4 °C 30.4 in /  1028.7 hPa Calm   2 mph /  3.2 km/h 56 % 0 in /  0.0 mm
01:27 45.7 °F /  7.6 °C 31.3 °F /  -0.4 °C 30.4 in /  1028.7 hPa Calm   2 mph /  3.2 km/h 57 % 0 in /  0.0 mm
01:32 45 °F /  7.2 °C 31.5 °F /  -0.3 °C 30.4 in /  1028.7 hPa Calm   2 mph /  3.2 km/h 59 % 0 in /  0.0 mm
01:37 45.1 °F /  7.3 °C 31.3 °F /  -0.4 °C 30.4 in /  1028.7 hPa Calm     58 % 0 in /  0.0 mm
01:42 45.9 °F /  7.7 °C 31.1 °F /  -0.5 °C 30.4 in /  1028.7 hPa Calm     56 % 0 in /  0.0 mm
01:47 45.9 °F /  7.7 °C 31.1 °F /  -0.5 °C 30.4 in /  1028.7 hPa Calm     56 % 0 in /  0.0 mm
01:52 45.1 °F /  7.3 °C 31.6 °F /  -0.2 °C 30.4 in /  1028.7 hPa Calm     59 % 0 in /  0.0 mm
01:57 43.9 °F /  6.6 °C 31.3 °F /  -0.4 °C 30.4 in /  1028.7 hPa Calm     61 % 0 in /  0.0 mm
02:02 44.1 °F /  6.7 °C 31.1 °F /  -0.5 °C 30.4 in /  1028.7 hPa Calm     60 % 0 in /  0.0 mm
02:07 45.1 °F /  7.3 °C 30.7 °F /  -0.7 °C 30.4 in /  1028.7 hPa Calm     57 % 0 in /  0.0 mm
02:12 45 °F /  7.2 °C 30.6 °F /  -0.8 °C 30.4 in /  1028.7 hPa Calm     57 % 0 in /  0.0 mm
02:17 44.4 °F /  6.9 °C 30.6 °F /  -0.8 °C 30.4 in /  1028.7 hPa Calm     58 % 0 in /  0.0 mm
02:22 44.4 °F /  6.9 °C 30.6 °F /  -0.8 °C 30.4 in /  1028.7 hPa Calm     58 % 0 in /  0.0 mm
02:27 44.4 °F /  6.9 °C 30.6 °F /  -0.8 °C 30.4 in /  1028.3 hPa Calm     58 % 0 in /  0.0 mm
02:32 44.2 °F /  6.8 °C 30.4 °F /  -0.9 °C 30.4 in /  1028.3 hPa Calm     58 % 0 in /  0.0 mm
02:37 43.9 °F /  6.6 °C 30.6 °F /  -0.8 °C 30.4 in /  1028.3 hPa Calm     59 % 0 in /  0.0 mm
02:42 44.1 °F /  6.7 °C 30.2 °F /  -1.0 °C 30.4 in /  1028.3 hPa NNW 1 mph /  1.6 km/h   58 % 0 in /  0.0 mm
02:47 44.4 °F /  6.9 °C 30.2 °F /  -1.0 °C 30.4 in /  1028.3 hPa Calm   3 mph /  4.8 km/h 57 % 0 in /  0.0 mm
02:52 44.4 °F /  6.9 °C 30.2 °F /  -1.0 °C 30.4 in /  1028.3 hPa Calm   3 mph /  4.8 km/h 57 % 0 in /  0.0 mm
02:57 44.2 °F /  6.8 °C 30.4 °F /  -0.9 °C 30.4 in /  1028.3 hPa NW 2 mph /  3.2 km/h 2 mph /  3.2 km/h 58 % 0 in /  0.0 mm
03:02 44.4 °F /  6.9 °C 30.2 °F /  -1.0 °C 30.4 in /  1028.3 hPa NW 1 mph /  1.6 km/h 2 mph /  3.2 km/h 57 % 0 in /  0.0 mm
03:07 44.8 °F /  7.1 °C 30.6 °F /  -0.8 °C 30.4 in /  1028.0 hPa NW 1 mph /  1.6 km/h 2 mph /  3.2 km/h 57 % 0 in /  0.0 mm
03:12 44.8 °F /  7.1 °C 30.6 °F /  -0.8 °C 30.4 in /  1028.0 hPa NW 2 mph /  3.2 km/h 2 mph /  3.2 km/h 57 % 0 in /  0.0 mm
03:17 44.8 °F /  7.1 °C 30.6 °F /  -0.8 °C 30.4 in /  1028.0 hPa NW 1 mph /  1.6 km/h 2 mph /  3.2 km/h 57 % 0 in /  0.0 mm
03:22 45 °F /  7.2 °C 30.2 °F /  -1.0 °C 30.4 in /  1028.0 hPa Calm   2 mph /  3.2 km/h 56 % 0 in /  0.0 mm
03:27 45 °F /  7.2 °C 30.2 °F /  -1.0 °C 30.4 in /  1028.0 hPa NW 2 mph /  3.2 km/h 2 mph /  3.2 km/h 56 % 0 in /  0.0 mm
03:32 44.8 °F /  7.1 °C 30.6 °F /  -0.8 °C 30.4 in /  1028.0 hPa NW 2 mph /  3.2 km/h 2 mph /  3.2 km/h 57 % 0 in /  0.0 mm
03:37 44.8 °F /  7.1 °C 30.6 °F /  -0.8 °C 30.4 in /  1028.0 hPa NW 2 mph /  3.2 km/h 3 mph /  4.8 km/h 57 % 0 in /  0.0 mm
03:42 44.6 °F /  7.0 °C 30.4 °F /  -0.9 °C 30.4 in /  1028.0 hPa NNW 2 mph /  3.2 km/h 3 mph /  4.8 km/h 57 % 0 in /  0.0 mm
03:47 44.6 °F /  7.0 °C 30.4 °F /  -0.9 °C 30.4 in /  1028.0 hPa NNW 2 mph /  3.2 km/h 3 mph /  4.8 km/h 57 % 0 in /  0.0 mm
03:52 44.4 °F /  6.9 °C 30.2 °F /  -1.0 °C 30.4 in /  1028.0 hPa NNW 1 mph /  1.6 km/h 3 mph /  4.8 km/h 57 % 0 in /  0.0 mm
03:57 44.4 °F /  6.9 °C 30.2 °F /  -1.0 °C 30.4 in /  1028.0 hPa NNW 1 mph /  1.6 km/h 3 mph /  4.8 km/h 57 % 0 in /  0.0 mm
04:02 44.2 °F /  6.8 °C 30.4 °F /  -0.9 °C 30.4 in /  1027.7 hPa NNW 1 mph /  1.6 km/h 3 mph /  4.8 km/h 58 % 0 in /  0.0 mm
04:12 44.1 °F /  6.7 °C 30.2 °F /  -1.0 °C 30.4 in /  1027.7 hPa NNW 1 mph /  1.6 km/h 2 mph /  3.2 km/h 58 % 0 in /  0.0 mm
04:17 44.2 °F /  6.8 °C 30 °F /  -1.1 °C 30.4 in /  1027.7 hPa NNW 1 mph /  1.6 km/h 2 mph /  3.2 km/h 57 % 0 in /  0.0 mm
04:22 43.7 °F /  6.5 °C 30.4 °F /  -0.9 °C 30.4 in /  1027.7 hPa Calm   2 mph /  3.2 km/h 59 % 0 in /  0.0 mm
04:32 43 °F /  6.1 °C 30 °F /  -1.1 °C 30.4 in /  1027.7 hPa NNW 1 mph /  1.6 km/h 2 mph /  3.2 km/h 60 % 0 in /  0.0 mm
04:37 43.2 °F /  6.2 °C 30.2 °F /  -1.0 °C 30.4 in /  1027.7 hPa NNW 1 mph /  1.6 km/h 1 mph /  1.6 km/h 60 % 0 in /  0.0 mm
04:42 43.2 °F /  6.2 °C 30.2 °F /  -1.0 °C 30.4 in /  1027.7 hPa Calm   1 mph /  1.6 km/h 60 % 0 in /  0.0 mm
04:47 42.6 °F /  5.9 °C 30.2 °F /  -1.0 °C 30.4 in /  1027.7 hPa NNW 1 mph /  1.6 km/h 2 mph /  3.2 km/h 61 % 0 in /  0.0 mm
04:52 42.4 °F /  5.8 °C 30.4 °F /  -0.9 °C 30.4 in /  1027.7 hPa NW 1 mph /  1.6 km/h 2 mph /  3.2 km/h 62 % 0 in /  0.0 mm
05:02 42.6 °F /  5.9 °C 30.2 °F /  -1.0 °C 30.4 in /  1027.7 hPa NW 2 mph /  3.2 km/h 3 mph /  4.8 km/h 61 % 0 in /  0.0 mm
05:12 42.4 °F /  5.8 °C 30.4 °F /  -0.9 °C 30.4 in /  1027.7 hPa NNW 1 mph /  1.6 km/h 3 mph /  4.8 km/h 62 % 0 in /  0.0 mm
05:22 42.3 °F /  5.7 °C 30.6 °F /  -0.8 °C 30.4 in /  1027.7 hPa Calm   3 mph /  4.8 km/h 63 % 0 in /  0.0 mm
05:27 41.9 °F /  5.5 °C 30.2 °F /  -1.0 °C 30.4 in /  1027.7 hPa NW 2 mph /  3.2 km/h 2 mph /  3.2 km/h 63 % 0 in /  0.0 mm
05:32 41.5 °F /  5.3 °C 30.2 °F /  -1.0 °C 30.3 in /  1027.3 hPa NW 3 mph /  4.8 km/h 3 mph /  4.8 km/h 64 % 0 in /  0.0 mm
05:37 41.4 °F /  5.2 °C 30 °F /  -1.1 °C 30.4 in /  1027.7 hPa NW 1 mph /  1.6 km/h 3 mph /  4.8 km/h 64 % 0 in /  0.0 mm
05:42 41.2 °F /  5.1 °C 30.4 °F /  -0.9 °C 30.4 in /  1027.7 hPa NNW 3 mph /  4.8 km/h 3 mph /  4.8 km/h 65 % 0 in /  0.0 mm
05:47 40.8 °F /  4.9 °C 30.4 °F /  -0.9 °C 30.4 in /  1027.7 hPa Calm   3 mph /  4.8 km/h 66 % 0 in /  0.0 mm
05:52 40.5 °F /  4.7 °C 30.4 °F /  -0.9 °C 30.4 in /  1027.7 hPa NNW 1 mph /  1.6 km/h 3 mph /  4.8 km/h 67 % 0 in /  0.0 mm
05:57 40.5 °F /  4.7 °C 30.4 °F /  -0.9 °C 30.4 in /  1027.7 hPa NNW 1 mph /  1.6 km/h 3 mph /  4.8 km/h 67 % 0 in /  0.0 mm
06:02 40.6 °F /  4.8 °C 30.2 °F /  -1.0 °C 30.3 in /  1027.3 hPa NNW 1 mph /  1.6 km/h 3 mph /  4.8 km/h 66 % 0 in /  0.0 mm
06:12 40.6 °F /  4.8 °C 30.6 °F /  -0.8 °C 30.3 in /  1027.3 hPa NW 1 mph /  1.6 km/h 2 mph /  3.2 km/h 67 % 0 in /  0.0 mm
06:17 41.2 °F /  5.1 °C 30.4 °F /  -0.9 °C 30.3 in /  1027.3 hPa NNW 1 mph /  1.6 km/h 2 mph /  3.2 km/h 65 % 0 in /  0.0 mm
06:22 40.6 °F /  4.8 °C 30.2 °F /  -1.0 °C 30.3 in /  1027.3 hPa NNW 1 mph /  1.6 km/h 2 mph /  3.2 km/h 66 % 0 in /  0.0 mm
06:32 39.9 °F /  4.4 °C 30.6 °F /  -0.8 °C 30.3 in /  1027.3 hPa Calm   2 mph /  3.2 km/h 69 % 0 in /  0.0 mm
06:37 39.7 °F /  4.3 °C 30.4 °F /  -0.9 °C 30.3 in /  1027.3 hPa NNW 2 mph /  3.2 km/h 2 mph /  3.2 km/h 69 % 0 in /  0.0 mm
06:42 40.3 °F /  4.6 °C 30.6 °F /  -0.8 °C 30.3 in /  1027.3 hPa NNW 1 mph /  1.6 km/h 1 mph /  1.6 km/h 68 % 0 in /  0.0 mm
06:52 40.5 °F /  4.7 °C 30 °F /  -1.1 °C 30.4 in /  1027.7 hPa North 3 mph /  4.8 km/h 3 mph /  4.8 km/h 66 % 0 in /  0.0 mm
06:57 40.6 °F /  4.8 °C 30.2 °F /  -1.0 °C 30.4 in /  1027.7 hPa North 2 mph /  3.2 km/h 3 mph /  4.8 km/h 66 % 0 in /  0.0 mm
07:02 40.8 °F /  4.9 °C 30 °F /  -1.1 °C 30.4 in /  1027.7 hPa North 1 mph /  1.6 km/h 3 mph /  4.8 km/h 65 % 0 in /  0.0 mm
07:12 41.2 °F /  5.1 °C 30.4 °F /  -0.9 °C 30.4 in /  1027.7 hPa NNW 1 mph /  1.6 km/h 3 mph /  4.8 km/h 65 % 0 in /  0.0 mm
07:22 41.2 °F /  5.1 °C 30.7 °F /  -0.7 °C 30.4 in /  1027.7 hPa NNW 1 mph /  1.6 km/h 2 mph /  3.2 km/h 66 % 0 in /  0.0 mm
07:32 41.5 °F /  5.3 °C 30.7 °F /  -0.7 °C 30.4 in /  1027.7 hPa Calm   2 mph /  3.2 km/h 65 % 0 in /  0.0 mm
07:42 42.3 °F /  5.7 °C 30.9 °F /  -0.6 °C 30.4 in /  1027.7 hPa Calm   2 mph /  3.2 km/h 64 % 0 in /  0.0 mm
07:47 42.4 °F /  5.8 °C 31.5 °F /  -0.3 °C 30.4 in /  1027.7 hPa Calm   1 mph /  1.6 km/h 65 % 0 in /  0.0 mm
07:52 42.1 °F /  5.6 °C 31.1 °F /  -0.5 °C 30.4 in /  1027.7 hPa Calm   1 mph /  1.6 km/h 65 % 0 in /  0.0 mm
08:02 42.3 °F /  5.7 °C 31.6 °F /  -0.2 °C 30.4 in /  1027.7 hPa Calm   1 mph /  1.6 km/h 66 % 0 in /  0.0 mm
08:12 43.3 °F /  6.3 °C 33.1 °F /  0.6 °C 30.4 in /  1027.7 hPa Calm   1 mph /  1.6 km/h 67 % 0 in /  0.0 mm
08:17 43.9 °F /  6.6 °C 34 °F /  1.1 °C 30.4 in /  1027.7 hPa Calm     68 % 0 in /  0.0 mm
08:22 45 °F /  7.2 °C 35.8 °F /  2.1 °C 30.4 in /  1027.7 hPa Calm     70 % 0 in /  0.0 mm
08:32 46.9 °F /  8.3 °C 35.4 °F /  1.9 °C 30.4 in /  1027.7 hPa Calm     64 % 0 in /  0.0 mm
08:42 48.6 °F /  9.2 °C 34.5 °F /  1.4 °C 30.4 in /  1028.0 hPa Calm   2 mph /  3.2 km/h 58 % 0 in /  0.0 mm
08:47 49.6 °F /  9.8 °C 34.5 °F /  1.4 °C 30.4 in /  1028.0 hPa Calm   1 mph /  1.6 km/h 56 % 0 in /  0.0 mm
08:52 50 °F /  10.0 °C 34 °F /  1.1 °C 30.4 in /  1028.0 hPa North 2 mph /  3.2 km/h 2 mph /  3.2 km/h 54 % 0 in /  0.0 mm
09:02 50.2 °F /  10.1 °C 35.1 °F /  1.7 °C 30.4 in /  1028.0 hPa NNE 1 mph /  1.6 km/h 3 mph /  4.8 km/h 56 % 0 in /  0.0 mm
09:12 51.3 °F /  10.7 °C 35.6 °F /  2.0 °C 30.4 in /  1028.0 hPa NNE 1 mph /  1.6 km/h 3 mph /  4.8 km/h 55 % 0 in /  0.0 mm
09:17 51.6 °F /  10.9 °C 35.1 °F /  1.7 °C 30.4 in /  1028.0 hPa NNE 1 mph /  1.6 km/h 5 mph /  8.0 km/h 53 % 0 in /  0.0 mm
09:22 52 °F /  11.1 °C 35.4 °F /  1.9 °C 30.4 in /  1028.0 hPa Calm   5 mph /  8.0 km/h 53 % 0 in /  0.0 mm
09:32 53.2 °F /  11.8 °C 35.6 °F /  2.0 °C 30.4 in /  1028.0 hPa Calm   3 mph /  4.8 km/h 51 % 0 in /  0.0 mm
09:42 53.4 °F /  11.9 °C 35.8 °F /  2.1 °C 30.4 in /  1028.0 hPa North 1 mph /  1.6 km/h 3 mph /  4.8 km/h 51 % 0 in /  0.0 mm
09:52 54.1 °F /  12.3 °C 37.4 °F /  3.0 °C 30.4 in /  1028.0 hPa ENE 1 mph /  1.6 km/h 6 mph /  9.7 km/h 53 % 0 in /  0.0 mm
10:02 54.9 °F /  12.7 °C 38.5 °F /  3.6 °C 30.4 in /  1028.0 hPa ESE 2 mph /  3.2 km/h 6 mph /  9.7 km/h 54 % 0 in /  0.0 mm
10:12 55.2 °F /  12.9 °C 37.9 °F /  3.3 °C 30.4 in /  1027.7 hPa East 3 mph /  4.8 km/h 5 mph /  8.0 km/h 52 % 0 in /  0.0 mm
10:22 55 °F /  12.8 °C 38.3 °F /  3.5 °C 30.4 in /  1027.7 hPa Calm   4 mph /  6.4 km/h 53 % 0 in /  0.0 mm
10:27 55.8 °F /  13.2 °C 39.4 °F /  4.1 °C 30.4 in /  1027.7 hPa ENE 3 mph /  4.8 km/h 5 mph /  8.0 km/h 54 % 0 in /  0.0 mm
10:32 55.8 °F /  13.2 °C 38.5 °F /  3.6 °C 30.4 in /  1027.7 hPa ENE 2 mph /  3.2 km/h 5 mph /  8.0 km/h 52 % 0 in /  0.0 mm
10:42 56.7 °F /  13.7 °C 39.7 °F /  4.3 °C 30.4 in /  1027.7 hPa ESE 2 mph /  3.2 km/h 5 mph /  8.0 km/h 53 % 0 in /  0.0 mm
10:52 57.2 °F /  14.0 °C 39.2 °F /  4.0 °C 30.4 in /  1027.7 hPa ENE 5 mph /  8.0 km/h 5 mph /  8.0 km/h 51 % 0 in /  0.0 mm
11:02 57.7 °F /  14.3 °C 39.2 °F /  4.0 °C 30.4 in /  1027.7 hPa ENE 6 mph /  9.7 km/h 10 mph /  16.1 km/h 50 % 0 in /  0.0 mm
11:12 58.3 °F /  14.6 °C 39.7 °F /  4.3 °C 30.4 in /  1027.7 hPa ESE 1 mph /  1.6 km/h 9 mph /  14.5 km/h 50 % 0 in /  0.0 mm
11:17 58.8 °F /  14.9 °C 40.8 °F /  4.9 °C 30.4 in /  1027.7 hPa ENE 3 mph /  4.8 km/h 9 mph /  14.5 km/h 51 % 0 in /  0.0 mm
11:22 59.2 °F /  15.1 °C 40.6 °F /  4.8 °C 30.4 in /  1027.7 hPa NNE 5 mph /  8.0 km/h 9 mph /  14.5 km/h 50 % 0 in /  0.0 mm
11:32 59.2 °F /  15.1 °C 40.6 °F /  4.8 °C 30.4 in /  1027.7 hPa ENE 2 mph /  3.2 km/h 8 mph /  12.9 km/h 50 % 0 in /  0.0 mm
11:42 59.5 °F /  15.3 °C 40.3 °F /  4.6 °C 30.4 in /  1027.7 hPa ENE 5 mph /  8.0 km/h 8 mph /  12.9 km/h 49 % 0 in /  0.0 mm
11:47 59.5 °F /  15.3 °C 40.8 °F /  4.9 °C 30.3 in /  1027.3 hPa East 4 mph /  6.4 km/h 9 mph /  14.5 km/h 50 % 0 in /  0.0 mm
11:52 59.5 °F /  15.3 °C 40.3 °F /  4.6 °C 30.3 in /  1027.3 hPa ENE 2 mph /  3.2 km/h 9 mph /  14.5 km/h 49 % 0 in /  0.0 mm
12:02 60.3 °F /  15.7 °C 42.1 °F /  5.6 °C 30.3 in /  1027.3 hPa NE 4 mph /  6.4 km/h 9 mph /  14.5 km/h 51 % 0 in /  0.0 mm
12:07 60.4 °F /  15.8 °C 40.6 °F /  4.8 °C 30.3 in /  1027.3 hPa Calm   8 mph /  12.9 km/h 48 % 0 in /  0.0 mm
12:12 61 °F /  16.1 °C 43.2 °F /  6.2 °C 30.3 in /  1027.0 hPa ESE 4 mph /  6.4 km/h 8 mph /  12.9 km/h 52 % 0 in /  0.0 mm
12:17 60.8 °F /  16.0 °C 41.5 °F /  5.3 °C 30.3 in /  1027.0 hPa ENE 3 mph /  4.8 km/h 8 mph /  12.9 km/h 49 % 0 in /  0.0 mm
12:22 60.8 °F /  16.0 °C 40.5 °F /  4.7 °C 30.3 in /  1027.0 hPa NE 4 mph /  6.4 km/h 8 mph /  12.9 km/h 47 % 0 in /  0.0 mm
12:32 61.3 °F /  16.3 °C 41.5 °F /  5.3 °C 30.3 in /  1027.0 hPa NNE 8 mph /  12.9 km/h 11 mph /  17.7 km/h 48 % 0 in /  0.0 mm
12:42 61.5 °F /  16.4 °C 41.2 °F /  5.1 °C 30.3 in /  1027.0 hPa NNE 12 mph /  19.3 km/h 12 mph /  19.3 km/h 47 % 0 in /  0.0 mm
12:52 61 °F /  16.1 °C 41.2 °F /  5.1 °C 30.3 in /  1027.0 hPa NNE 2 mph /  3.2 km/h 11 mph /  17.7 km/h 48 % 0 in /  0.0 mm
12:57 61.2 °F /  16.2 °C 39.7 °F /  4.3 °C 30.3 in /  1027.0 hPa Calm   12 mph /  19.3 km/h 45 % 0 in /  0.0 mm
13:02 61.7 °F /  16.5 °C 41.2 °F /  5.1 °C 30.3 in /  1027.0 hPa East 3 mph /  4.8 km/h 12 mph /  19.3 km/h 47 % 0 in /  0.0 mm
13:07 61.7 °F /  16.5 °C 40.6 °F /  4.8 °C 30.3 in /  1026.6 hPa NE 2 mph /  3.2 km/h 14 mph /  22.5 km/h 46 % 0 in /  0.0 mm
13:12 61.7 °F /  16.5 °C 40.1 °F /  4.5 °C 30.3 in /  1026.6 hPa SSE 1 mph /  1.6 km/h 14 mph /  22.5 km/h 45 % 0 in /  0.0 mm
13:17 61.9 °F /  16.6 °C 41.4 °F /  5.2 °C 30.3 in /  1026.6 hPa ENE 8 mph /  12.9 km/h 14 mph /  22.5 km/h 47 % 0 in /  0.0 mm
13:22 62.1 °F /  16.7 °C 42.6 °F /  5.9 °C 30.3 in /  1026.6 hPa NNE 4 mph /  6.4 km/h 14 mph /  22.5 km/h 49 % 0 in /  0.0 mm
13:27 62.2 °F /  16.8 °C 41.2 °F /  5.1 °C 30.3 in /  1026.6 hPa ENE 4 mph /  6.4 km/h 11 mph /  17.7 km/h 46 % 0 in /  0.0 mm
13:32 62.4 °F /  16.9 °C 40.8 °F /  4.9 °C 30.3 in /  1026.3 hPa Calm   11 mph /  17.7 km/h 45 % 0 in /  0.0 mm
13:37 63 °F /  17.2 °C 41.9 °F /  5.5 °C 30.3 in /  1026.3 hPa East 3 mph /  4.8 km/h 9 mph /  14.5 km/h 46 % 0 in /  0.0 mm
13:42 63.3 °F /  17.4 °C 42.8 °F /  6.0 °C 30.3 in /  1026.3 hPa ENE 5 mph /  8.0 km/h 9 mph /  14.5 km/h 47 % 0 in /  0.0 mm
13:47 63 °F /  17.2 °C 43 °F /  6.1 °C 30.3 in /  1026.3 hPa NNE 2 mph /  3.2 km/h 10 mph /  16.1 km/h 48 % 0 in /  0.0 mm
13:52 63.1 °F /  17.3 °C 43.2 °F /  6.2 °C 30.3 in /  1026.3 hPa East 3 mph /  4.8 km/h 10 mph /  16.1 km/h 48 % 0 in /  0.0 mm
13:57 63.5 °F /  17.5 °C 43 °F /  6.1 °C 30.3 in /  1026.0 hPa NE 9 mph /  14.5 km/h 9 mph /  14.5 km/h 47 % 0 in /  0.0 mm
14:02 63.1 °F /  17.3 °C 41.5 °F /  5.3 °C 30.3 in /  1026.0 hPa NE 6 mph /  9.7 km/h 9 mph /  14.5 km/h 45 % 0 in /  0.0 mm
14:12 62.8 °F /  17.1 °C 41.7 °F /  5.4 °C 30.3 in /  1026.0 hPa NE 1 mph /  1.6 km/h 13 mph /  20.9 km/h 46 % 0 in /  0.0 mm
14:17 62.8 °F /  17.1 °C 42.3 °F /  5.7 °C 30.3 in /  1026.0 hPa North 5 mph /  8.0 km/h 14 mph /  22.5 km/h 47 % 0 in /  0.0 mm
14:22 63 °F /  17.2 °C 43 °F /  6.1 °C 30.3 in /  1026.0 hPa NE 9 mph /  14.5 km/h 14 mph /  22.5 km/h 48 % 0 in /  0.0 mm
14:27 63 °F /  17.2 °C 43.5 °F /  6.4 °C 30.3 in /  1026.0 hPa NNW 9 mph /  14.5 km/h 14 mph /  22.5 km/h 49 % 0 in /  0.0 mm
14:32 63.3 °F /  17.4 °C 42.8 °F /  6.0 °C 30.3 in /  1026.0 hPa NNE 13 mph /  20.9 km/h 14 mph /  22.5 km/h 47 % 0 in /  0.0 mm
14:37 63 °F /  17.2 °C 41.9 °F /  5.5 °C 30.3 in /  1025.6 hPa North 13 mph /  20.9 km/h 14 mph /  22.5 km/h 46 % 0 in /  0.0 mm
14:42 62.8 °F /  17.1 °C 41.7 °F /  5.4 °C 30.3 in /  1025.6 hPa NNE 3 mph /  4.8 km/h 14 mph /  22.5 km/h 46 % 0 in /  0.0 mm
14:47 63.3 °F /  17.4 °C 43.3 °F /  6.3 °C 30.3 in /  1025.6 hPa North 3 mph /  4.8 km/h 14 mph /  22.5 km/h 48 % 0 in /  0.0 mm
14:57 63.3 °F /  17.4 °C 41.5 °F /  5.3 °C 30.3 in /  1025.6 hPa WSW 3 mph /  4.8 km/h 9 mph /  14.5 km/h 45 % 0 in /  0.0 mm
15:02 63.7 °F /  17.6 °C 42.4 °F /  5.8 °C 30.3 in /  1025.6 hPa NNE 8 mph /  12.9 km/h 9 mph /  14.5 km/h 46 % 0 in /  0.0 mm
15:12 63.1 °F /  17.3 °C 43.2 °F /  6.2 °C 30.3 in /  1025.3 hPa North 8 mph /  12.9 km/h 15 mph /  24.1 km/h 48 % 0 in /  0.0 mm
15:17 63.3 °F /  17.4 °C 42.3 °F /  5.7 °C 30.3 in /  1025.3 hPa WNW 3 mph /  4.8 km/h 15 mph /  24.1 km/h 46 % 0 in /  0.0 mm
15:22 63.7 °F /  17.6 °C 41.4 °F /  5.2 °C 30.3 in /  1025.3 hPa NE 6 mph /  9.7 km/h 15 mph /  24.1 km/h 44 % 0 in /  0.0 mm
15:32 63.5 °F /  17.5 °C 41.7 °F /  5.4 °C 30.3 in /  1025.3 hPa NNW 2 mph /  3.2 km/h 16 mph /  25.7 km/h 45 % 0 in /  0.0 mm
15:37 63.3 °F /  17.4 °C 41.5 °F /  5.3 °C 30.3 in /  1025.3 hPa North 4 mph /  6.4 km/h 15 mph /  24.1 km/h 45 % 0 in /  0.0 mm
15:42 63.3 °F /  17.4 °C 43.3 °F /  6.3 °C 30.3 in /  1024.9 hPa NNW 4 mph /  6.4 km/h 15 mph /  24.1 km/h 48 % 0 in /  0.0 mm
15:52 63.9 °F /  17.7 °C 42.1 °F /  5.6 °C 30.3 in /  1024.9 hPa North 3 mph /  4.8 km/h 15 mph /  24.1 km/h 45 % 0 in /  0.0 mm
15:57 64 °F /  17.8 °C 41.7 °F /  5.4 °C 30.3 in /  1024.9 hPa NNE 2 mph /  3.2 km/h 13 mph /  20.9 km/h 44 % 0 in /  0.0 mm
16:02 63.7 °F /  17.6 °C 42.4 °F /  5.8 °C 30.3 in /  1024.9 hPa NE 8 mph /  12.9 km/h 13 mph /  20.9 km/h 46 % 0 in /  0.0 mm
16:12 63.9 °F /  17.7 °C 42.6 °F /  5.9 °C 30.3 in /  1024.9 hPa NE 6 mph /  9.7 km/h 14 mph /  22.5 km/h 46 % 0 in /  0.0 mm
16:17 63.9 °F /  17.7 °C 43.7 °F /  6.5 °C 30.3 in /  1024.9 hPa NE 11 mph /  17.7 km/h 14 mph /  22.5 km/h 48 % 0 in /  0.0 mm
16:22 63.7 °F /  17.6 °C 42.4 °F /  5.8 °C 30.3 in /  1024.6 hPa NE 8 mph /  12.9 km/h 14 mph /  22.5 km/h 46 % 0 in /  0.0 mm
16:27 63.3 °F /  17.4 °C 42.3 °F /  5.7 °C 30.3 in /  1024.6 hPa WNW 1 mph /  1.6 km/h 16 mph /  25.7 km/h 46 % 0 in /  0.0 mm
16:32 63.7 °F /  17.6 °C 43.2 °F /  6.2 °C 30.3 in /  1024.6 hPa NE 6 mph /  9.7 km/h 16 mph /  25.7 km/h 47 % 0 in /  0.0 mm
16:37 63.3 °F /  17.4 °C 41.5 °F /  5.3 °C 30.3 in /  1024.6 hPa North 3 mph /  4.8 km/h 16 mph /  25.7 km/h 45 % 0 in /  0.0 mm
16:42 63.3 °F /  17.4 °C 43.3 °F /  6.3 °C 30.3 in /  1024.3 hPa North 5 mph /  8.0 km/h 16 mph /  25.7 km/h 48 % 0 in /  0.0 mm
16:47 63 °F /  17.2 °C 43 °F /  6.1 °C 30.3 in /  1024.6 hPa NNE 5 mph /  8.0 km/h 15 mph /  24.1 km/h 48 % 0 in /  0.0 mm
16:52 63.1 °F /  17.3 °C 42.6 °F /  5.9 °C 30.3 in /  1024.6 hPa NW 8 mph /  12.9 km/h 15 mph /  24.1 km/h 47 % 0 in /  0.0 mm
17:02 63.1 °F /  17.3 °C 43.2 °F /  6.2 °C 30.3 in /  1024.3 hPa NNE 5 mph /  8.0 km/h 15 mph /  24.1 km/h 48 % 0 in /  0.0 mm
17:12 62.4 °F /  16.9 °C 43.5 °F /  6.4 °C 30.3 in /  1024.3 hPa North 9 mph /  14.5 km/h 14 mph /  22.5 km/h 50 % 0 in /  0.0 mm
17:17 62.2 °F /  16.8 °C 42.8 °F /  6.0 °C 30.3 in /  1024.3 hPa NNW 7 mph /  11.3 km/h 14 mph /  22.5 km/h 49 % 0 in /  0.0 mm
17:22 62.2 °F /  16.8 °C 43.3 °F /  6.3 °C 30.3 in /  1024.3 hPa NNE 4 mph /  6.4 km/h 14 mph /  22.5 km/h 50 % 0 in /  0.0 mm
17:27 62.6 °F /  17.0 °C 43.2 °F /  6.2 °C 30.3 in /  1024.3 hPa North 6 mph /  9.7 km/h 12 mph /  19.3 km/h 49 % 0 in /  0.0 mm
17:32 62.1 °F /  16.7 °C 42.1 °F /  5.6 °C 30.3 in /  1024.3 hPa NE 5 mph /  8.0 km/h 12 mph /  19.3 km/h 48 % 0 in /  0.0 mm
17:37 61.7 °F /  16.5 °C 42.8 °F /  6.0 °C 30.3 in /  1024.3 hPa NNW 6 mph /  9.7 km/h 11 mph /  17.7 km/h 50 % 0 in /  0.0 mm
17:42 61.3 °F /  16.3 °C 42.6 °F /  5.9 °C 30.3 in /  1024.3 hPa West 3 mph /  4.8 km/h 11 mph /  17.7 km/h 50 % 0 in /  0.0 mm
17:47 61.3 °F /  16.3 °C 42.6 °F /  5.9 °C 30.3 in /  1024.3 hPa NNE 7 mph /  11.3 km/h 15 mph /  24.1 km/h 50 % 0 in /  0.0 mm
17:52 61.3 °F /  16.3 °C 42.6 °F /  5.9 °C 30.3 in /  1024.3 hPa NNE 9 mph /  14.5 km/h 15 mph /  24.1 km/h 50 % 0 in /  0.0 mm
17:57 61.2 °F /  16.2 °C 41.9 °F /  5.5 °C 30.3 in /  1024.3 hPa North 6 mph /  9.7 km/h 13 mph /  20.9 km/h 49 % 0 in /  0.0 mm
18:02 61 °F /  16.1 °C 42.3 °F /  5.7 °C 30.3 in /  1024.3 hPa NNE 9 mph /  14.5 km/h 13 mph /  20.9 km/h 50 % 0 in /  0.0 mm
18:12 60.6 °F /  15.9 °C 43 °F /  6.1 °C 30.3 in /  1024.3 hPa NE 6 mph /  9.7 km/h 15 mph /  24.1 km/h 52 % 0 in /  0.0 mm
18:17 61 °F /  16.1 °C 42.8 °F /  6.0 °C 30.3 in /  1024.3 hPa North 5 mph /  8.0 km/h 18 mph /  29.0 km/h 51 % 0 in /  0.0 mm
18:22 61 °F /  16.1 °C 42.3 °F /  5.7 °C 30.3 in /  1024.3 hPa NNE 9 mph /  14.5 km/h 18 mph /  29.0 km/h 50 % 0 in /  0.0 mm
18:32 60.4 °F /  15.8 °C 42.3 °F /  5.7 °C 30.3 in /  1024.3 hPa NNE 7 mph /  11.3 km/h 15 mph /  24.1 km/h 51 % 0 in /  0.0 mm
18:42 60.1 °F /  15.6 °C 41.9 °F /  5.5 °C 30.3 in /  1024.3 hPa NNE 9 mph /  14.5 km/h 16 mph /  25.7 km/h 51 % 0 in /  0.0 mm
18:52 59.7 °F /  15.4 °C 41.5 °F /  5.3 °C 30.3 in /  1024.3 hPa North 6 mph /  9.7 km/h 14 mph /  22.5 km/h 51 % 0 in /  0.0 mm
19:02 59.4 °F /  15.2 °C 41.7 °F /  5.4 °C 30.3 in /  1024.3 hPa NE 13 mph /  20.9 km/h 13 mph /  20.9 km/h 52 % 0 in /  0.0 mm
19:07 59.4 °F /  15.2 °C 41.7 °F /  5.4 °C 30.3 in /  1024.3 hPa NNE 9 mph /  14.5 km/h 17 mph /  27.4 km/h 52 % 0 in /  0.0 mm
19:12 59.4 °F /  15.2 °C 41.7 °F /  5.4 °C 30.3 in /  1024.3 hPa NE 11 mph /  17.7 km/h 17 mph /  27.4 km/h 52 % 0 in /  0.0 mm
19:17 59.2 °F /  15.1 °C 41 °F /  5.0 °C 30.3 in /  1024.3 hPa WNW 7 mph /  11.3 km/h 15 mph /  24.1 km/h 51 % 0 in /  0.0 mm
19:22 58.8 °F /  14.9 °C 41.2 °F /  5.1 °C 30.3 in /  1024.3 hPa NNE 7 mph /  11.3 km/h 15 mph /  24.1 km/h 52 % 0 in /  0.0 mm
19:32 58.6 °F /  14.8 °C 41.5 °F /  5.3 °C 30.3 in /  1024.3 hPa North 5 mph /  8.0 km/h 14 mph /  22.5 km/h 53 % 0 in /  0.0 mm
19:37 58.5 °F /  14.7 °C 41.4 °F /  5.2 °C 30.3 in /  1024.3 hPa NE 3 mph /  4.8 km/h 15 mph /  24.1 km/h 53 % 0 in /  0.0 mm
19:42 58.3 °F /  14.6 °C 41.2 °F /  5.1 °C 30.3 in /  1024.3 hPa NE 7 mph /  11.3 km/h 15 mph /  24.1 km/h 53 % 0 in /  0.0 mm
19:47 58.1 °F /  14.5 °C 42.1 °F /  5.6 °C 30.3 in /  1024.3 hPa NNE 7 mph /  11.3 km/h 15 mph /  24.1 km/h 55 % 0 in /  0.0 mm
19:52 57.9 °F /  14.4 °C 41.9 °F /  5.5 °C 30.3 in /  1024.3 hPa NE 7 mph /  11.3 km/h 15 mph /  24.1 km/h 55 % 0 in /  0.0 mm
19:57 57.7 °F /  14.3 °C 41.7 °F /  5.4 °C 30.3 in /  1024.3 hPa ENE 4 mph /  6.4 km/h 15 mph /  24.1 km/h 55 % 0 in /  0.0 mm
20:02 57.6 °F /  14.2 °C 41.9 °F /  5.5 °C 30.3 in /  1024.3 hPa NNE 4 mph /  6.4 km/h 15 mph /  24.1 km/h 56 % 0 in /  0.0 mm
20:12 57 °F /  13.9 °C 42.4 °F /  5.8 °C 30.3 in /  1024.3 hPa North 7 mph /  11.3 km/h 13 mph /  20.9 km/h 58 % 0 in /  0.0 mm
20:17 56.8 °F /  13.8 °C 42.6 °F /  5.9 °C 30.3 in /  1024.3 hPa NNE 9 mph /  14.5 km/h 15 mph /  24.1 km/h 59 % 0 in /  0.0 mm
20:22 56.3 °F /  13.5 °C 42.6 °F /  5.9 °C 30.3 in /  1024.3 hPa NNE 6 mph /  9.7 km/h 15 mph /  24.1 km/h 60 % 0 in /  0.0 mm
20:32 55.8 °F /  13.2 °C 43 °F /  6.1 °C 30.3 in /  1024.3 hPa NE 9 mph /  14.5 km/h 15 mph /  24.1 km/h 62 % 0 in /  0.0 mm
20:37 55.4 °F /  13.0 °C 42.6 °F /  5.9 °C 30.3 in /  1024.3 hPa NE 4 mph /  6.4 km/h 12 mph /  19.3 km/h 62 % 0 in /  0.0 mm
20:42 55.2 °F /  12.9 °C 42.8 °F /  6.0 °C 30.3 in /  1024.3 hPa NNE 8 mph /  12.9 km/h 12 mph /  19.3 km/h 63 % 0 in /  0.0 mm
20:47 54.9 °F /  12.7 °C 42.4 °F /  5.8 °C 30.3 in /  1024.3 hPa NNE 7 mph /  11.3 km/h 11 mph /  17.7 km/h 63 % 0 in /  0.0 mm
20:52 54.5 °F /  12.5 °C 42.6 °F /  5.9 °C 30.3 in /  1024.3 hPa NNE 3 mph /  4.8 km/h 11 mph /  17.7 km/h 64 % 0 in /  0.0 mm
21:02 53.8 °F /  12.1 °C 42.6 °F /  5.9 °C 30.3 in /  1024.6 hPa North 5 mph /  8.0 km/h 10 mph /  16.1 km/h 66 % 0 in /  0.0 mm
21:07 53.8 °F /  12.1 °C 42.6 °F /  5.9 °C 30.3 in /  1024.6 hPa NE 3 mph /  4.8 km/h 9 mph /  14.5 km/h 66 % 0 in /  0.0 mm
21:12 53.4 °F /  11.9 °C 42.8 °F /  6.0 °C 30.3 in /  1024.6 hPa NW 3 mph /  4.8 km/h 9 mph /  14.5 km/h 67 % 0 in /  0.0 mm
21:17 53.4 °F /  11.9 °C 42.8 °F /  6.0 °C 30.3 in /  1024.6 hPa NNW 4 mph /  6.4 km/h 10 mph /  16.1 km/h 67 % 0 in /  0.0 mm
21:22 53.2 °F /  11.8 °C 42.6 °F /  5.9 °C 30.3 in /  1024.6 hPa NNW 2 mph /  3.2 km/h 10 mph /  16.1 km/h 67 % 0 in /  0.0 mm
21:27 53.1 °F /  11.7 °C 42.4 °F /  5.8 °C 30.3 in /  1024.6 hPa NE 4 mph /  6.4 km/h 10 mph /  16.1 km/h 67 % 0 in /  0.0 mm
21:32 52.5 °F /  11.4 °C 42.3 °F /  5.7 °C 30.3 in /  1024.6 hPa NNW 4 mph /  6.4 km/h 10 mph /  16.1 km/h 68 % 0 in /  0.0 mm
21:42 52.2 °F /  11.2 °C 42.3 °F /  5.7 °C 30.3 in /  1024.6 hPa NNW 4 mph /  6.4 km/h 8 mph /  12.9 km/h 69 % 0 in /  0.0 mm
21:47 52 °F /  11.1 °C 42.4 °F /  5.8 °C 30.3 in /  1024.6 hPa NNE 4 mph /  6.4 km/h 8 mph /  12.9 km/h 70 % 0 in /  0.0 mm
21:57 51.6 °F /  10.9 °C 42.4 °F /  5.8 °C 30.3 in /  1024.9 hPa Calm   8 mph /  12.9 km/h 71 % 0 in /  0.0 mm
22:02 51.4 °F /  10.8 °C 42.4 °F /  5.8 °C 30.3 in /  1024.9 hPa NNE 2 mph /  3.2 km/h 8 mph /  12.9 km/h 71 % 0 in /  0.0 mm
22:07 51.3 °F /  10.7 °C 42.3 °F /  5.7 °C 30.3 in /  1024.9 hPa North 2 mph /  3.2 km/h 5 mph /  8.0 km/h 71 % 0 in /  0.0 mm
22:17 51.1 °F /  10.6 °C 42.4 °F /  5.8 °C 30.3 in /  1024.9 hPa NNW 1 mph /  1.6 km/h 4 mph /  6.4 km/h 72 % 0 in /  0.0 mm
22:22 50.9 °F /  10.5 °C 42.3 °F /  5.7 °C 30.3 in /  1024.9 hPa NNW 1 mph /  1.6 km/h 4 mph /  6.4 km/h 72 % 0 in /  0.0 mm
22:37 50.2 °F /  10.1 °C 42.3 °F /  5.7 °C 30.3 in /  1024.9 hPa NNE 1 mph /  1.6 km/h 5 mph /  8.0 km/h 74 % 0 in /  0.0 mm
22:42 50.2 °F /  10.1 °C 42.3 °F /  5.7 °C 30.3 in /  1024.9 hPa North 2 mph /  3.2 km/h 5 mph /  8.0 km/h 74 % 0 in /  0.0 mm
22:47 50 °F /  10.0 °C 42.4 °F /  5.8 °C 30.3 in /  1024.9 hPa Calm   6 mph /  9.7 km/h 75 % 0 in /  0.0 mm
22:52 49.8 °F /  9.9 °C 42.3 °F /  5.7 °C 30.3 in /  1025.3 hPa NNE 5 mph /  8.0 km/h 6 mph /  9.7 km/h 75 % 0 in /  0.0 mm
22:57 50 °F /  10.0 °C 42.4 °F /  5.8 °C 30.3 in /  1025.3 hPa NE 1 mph /  1.6 km/h 9 mph /  14.5 km/h 75 % 0 in /  0.0 mm
23:02 49.8 °F /  9.9 °C 42.6 °F /  5.9 °C 30.3 in /  1025.3 hPa NE 2 mph /  3.2 km/h 9 mph /  14.5 km/h 76 % 0 in /  0.0 mm
23:12 49.6 °F /  9.8 °C 42.4 °F /  5.8 °C 30.3 in /  1025.3 hPa NE 6 mph /  9.7 km/h 7 mph /  11.3 km/h 76 % 0 in /  0.0 mm
23:17 49.8 °F /  9.9 °C 42.6 °F /  5.9 °C 30.3 in /  1025.3 hPa NNE 2 mph /  3.2 km/h 11 mph /  17.7 km/h 76 % 0 in /  0.0 mm
23:22 49.6 °F /  9.8 °C 42.4 °F /  5.8 °C 30.3 in /  1025.3 hPa NE 4 mph /  6.4 km/h 11 mph /  17.7 km/h 76 % 0 in /  0.0 mm
23:32 50.2 °F /  10.1 °C 43.3 °F /  6.3 °C 30.3 in /  1025.3 hPa NNE 6 mph /  9.7 km/h 11 mph /  17.7 km/h 77 % 0 in /  0.0 mm
23:37 50.2 °F /  10.1 °C 43.5 °F /  6.4 °C 30.3 in /  1025.6 hPa NNE 4 mph /  6.4 km/h 11 mph /  17.7 km/h 78 % 0 in /  0.0 mm
23:42 50 °F /  10.0 °C 43.3 °F /  6.3 °C 30.3 in /  1025.6 hPa NE 6 mph /  9.7 km/h 11 mph /  17.7 km/h 78 % 0 in /  0.0 mm
23:52 49.5 °F /  9.7 °C 43.2 °F /  6.2 °C 30.3 in /  1025.6 hPa NNE 3 mph /  4.8 km/h 11 mph /  17.7 km/h 79 % 0 in /  0.0 mm
23:57 49.1 °F /  9.5 °C 42.8 °F /  6.0 °C 30.3 in /  1025.6 hPa NNW 2 mph /  3.2 km/h 10 mph /  16.1 km/h 79 % 0 in /  0.0 mm
Meteo18
Compliments of Weather Underground - 4 mb

Script developed by  Jim McMurry - jmcmurry@mwt.net Adapted for the template by  Wim van der Kuil - Leuven-Template.eu

You find our weather info also at:

European Weather Network

Weather Underground

Equipment we use:

Weather-station
Davis Vue

Weather-program
Meteohub

Weather-server
Raspberry PI 2 B+

Provider
1 and 1

Davis Vue

Meteohub

Raspberry PI 2 B+

1 and 1